createdAt,value
2023-04-01T00:01:25.877Z,6.73
2023-04-01T00:03:52.750Z,6.07
2023-04-01T00:06:20.048Z,5.77
2023-04-01T00:08:47.283Z,7.53
2023-04-01T00:11:14.890Z,5.23
2023-04-01T00:13:42.359Z,3.30
2023-04-01T00:16:17.915Z,5.37
2023-04-01T00:18:48.589Z,7.17
2023-04-01T00:21:16.287Z,6.20
2023-04-01T00:23:43.189Z,5.53
2023-04-01T00:26:10.272Z,8.60
2023-04-01T00:28:38.334Z,4.80
2023-04-01T00:31:07.208Z,7.00
2023-04-01T00:33:34.030Z,5.17
2023-04-01T00:36:12.860Z,4.10
2023-04-01T00:38:40.085Z,6.37
2023-04-01T00:41:07.114Z,14.47
2023-04-01T00:43:34.381Z,7.03
2023-04-01T00:46:01.496Z,7.20
2023-04-01T00:48:36.075Z,6.90
2023-04-01T00:51:12.668Z,6.90
2023-04-01T00:53:44.024Z,9.47
2023-04-01T00:56:15.459Z,7.33
2023-04-01T00:58:47.372Z,5.83
2023-04-01T01:01:14.246Z,6.90
2023-04-01T01:03:41.511Z,5.43
2023-04-01T01:06:40.111Z,6.77
2023-04-01T01:09:29.047Z,5.13
2023-04-01T01:12:06.016Z,5.57
2023-04-01T01:14:53.837Z,4.67
2023-04-01T01:17:26.841Z,7.43
2023-04-01T01:20:25.914Z,6.67
2023-04-01T01:23:18.444Z,7.60
2023-04-01T01:25:56.716Z,7.33
2023-04-01T01:28:51.499Z,5.77
2023-04-01T01:31:35.361Z,7.93
2023-04-01T01:34:24.572Z,4.77
2023-04-01T01:36:57.390Z,6.80
2023-04-01T01:39:30.083Z,8.83
2023-04-01T01:42:01.437Z,7.20
2023-04-01T01:44:31.656Z,8.50
2023-04-01T01:46:58.877Z,9.50
2023-04-01T01:49:27.111Z,6.27
2023-04-01T01:51:57.463Z,6.37
2023-04-01T01:54:24.283Z,8.23
2023-04-01T01:56:56.972Z,6.70
2023-04-01T01:59:29.326Z,9.90
2023-04-01T02:01:57.960Z,5.57
2023-04-01T02:04:26.435Z,8.27
2023-04-01T02:07:04.401Z,11.60
2023-04-01T02:09:31.367Z,8.03
2023-04-01T02:12:02.138Z,8.80
2023-04-01T02:14:47.203Z,5.77
2023-04-01T02:17:18.880Z,8.07
2023-04-01T02:19:56.942Z,8.47
2023-04-01T02:22:28.872Z,9.47
2023-04-01T02:25:00.306Z,7.27
2023-04-01T02:27:27.051Z,6.03
2023-04-01T02:29:56.492Z,5.53
2023-04-01T02:32:23.328Z,6.53
2023-04-01T02:34:50.666Z,7.37
2023-04-01T02:37:17.989Z,8.63
2023-04-01T02:39:44.754Z,8.23
2023-04-01T02:42:11.687Z,6.60
2023-04-01T02:44:38.357Z,10.33
2023-04-01T02:47:05.090Z,7.37
2023-04-01T02:49:31.868Z,6.67
2023-04-01T02:51:58.568Z,8.27
2023-04-01T02:54:25.349Z,6.90
2023-04-01T02:56:52.156Z,6.47
2023-04-01T02:59:18.895Z,7.17
2023-04-01T03:01:45.614Z,6.23
2023-04-01T03:04:12.243Z,6.10
2023-04-01T03:06:38.891Z,5.07
2023-04-01T03:09:05.647Z,6.70
2023-04-01T03:11:32.279Z,4.17
2023-04-01T03:13:58.968Z,8.43
2023-04-01T03:16:25.862Z,7.00
2023-04-01T03:18:53.579Z,5.33
2023-04-01T03:21:24.850Z,6.47
2023-04-01T03:23:51.497Z,8.67
2023-04-01T03:26:19.187Z,5.60
2023-04-01T03:28:45.858Z,6.17
2023-04-01T03:31:13.530Z,5.20
2023-04-01T03:33:46.983Z,6.07
2023-04-01T03:36:14.045Z,5.93
2023-04-01T03:38:41.981Z,6.00
2023-04-01T03:41:08.708Z,7.27
2023-04-01T03:43:35.453Z,4.60
2023-04-01T03:46:02.549Z,6.13
2023-04-01T03:48:29.995Z,6.43
2023-04-01T03:50:56.651Z,7.13
2023-04-01T03:53:23.853Z,6.03
2023-04-01T03:55:52.337Z,4.80
2023-04-01T03:58:19.081Z,6.83
2023-04-01T04:00:46.204Z,4.83
2023-04-01T04:03:13.079Z,6.33
2023-04-01T04:05:50.442Z,6.27
2023-04-01T04:08:18.747Z,4.87
2023-04-01T04:10:45.795Z,4.13
2023-04-01T04:13:12.429Z,5.03
2023-04-01T04:15:45.403Z,5.40
2023-04-01T04:18:12.133Z,5.10
2023-04-01T04:20:46.487Z,5.57
2023-04-01T04:23:13.217Z,7.83
2023-04-01T04:25:41.210Z,6.77
2023-04-01T04:28:08.027Z,4.80
2023-04-01T04:30:35.292Z,7.73
2023-04-01T04:33:02.775Z,4.90
2023-04-01T04:35:29.480Z,5.27
2023-04-01T04:37:56.192Z,4.77
2023-04-01T04:40:23.188Z,5.67
2023-04-01T04:42:49.970Z,7.17
2023-04-01T04:45:16.869Z,5.43
2023-04-01T04:47:52.575Z,3.77
2023-04-01T04:50:19.273Z,5.37
2023-04-01T04:52:46.006Z,6.27
2023-04-01T04:55:13.006Z,6.53
2023-04-01T04:57:42.524Z,4.97
2023-04-01T05:00:11.032Z,5.37
2023-04-01T05:02:52.842Z,4.47
2023-04-01T05:05:19.681Z,4.10
2023-04-01T05:07:46.728Z,4.70
2023-04-01T05:10:13.498Z,3.63
2023-04-01T05:12:40.336Z,5.67
2023-04-01T05:15:09.714Z,3.63
2023-04-01T05:17:36.707Z,2.20
2023-04-01T05:20:05.074Z,3.37
2023-04-01T05:22:31.827Z,6.40
2023-04-01T05:24:58.528Z,4.57
2023-04-01T05:27:25.735Z,4.33
2023-04-01T05:29:53.202Z,4.90
2023-04-01T05:32:46.330Z,2.83
2023-04-01T05:35:13.050Z,5.57
2023-04-01T05:37:39.850Z,2.73
2023-04-01T05:40:07.215Z,4.03
2023-04-01T05:42:36.790Z,3.97
2023-04-01T05:45:05.207Z,5.83
2023-04-01T05:48:09.694Z,3.60
2023-04-01T05:50:41.641Z,3.63
2023-04-01T05:53:09.488Z,4.27
2023-04-01T05:55:37.535Z,3.17
2023-04-01T05:58:05.055Z,4.00
2023-04-01T06:00:32.240Z,2.23
2023-04-01T06:03:00.919Z,3.83
2023-04-01T06:05:39.180Z,4.60
2023-04-01T06:08:20.099Z,1.70
2023-04-01T06:10:56.840Z,3.10
2023-04-01T06:13:41.814Z,3.50
2023-04-01T06:16:36.666Z,1.83
2023-04-01T06:19:09.353Z,2.70
2023-04-01T06:21:42.737Z,2.10
2023-04-01T06:24:22.182Z,2.63
2023-04-01T06:27:10.881Z,4.10
2023-04-01T06:30:02.045Z,2.27
2023-04-01T06:32:41.192Z,2.80
2023-04-01T06:35:29.782Z,2.83
2023-04-01T06:38:02.432Z,2.33
2023-04-01T06:40:58.874Z,2.93
2023-04-01T06:43:44.361Z,2.00
2023-04-01T06:46:46.554Z,2.10
2023-04-01T06:50:22.312Z,1.80
2023-04-01T06:53:48.228Z,2.90
2023-04-01T06:56:35.170Z,1.80
2023-04-01T06:59:26.012Z,3.60
2023-04-01T07:02:06.787Z,2.13
2023-04-01T07:04:40.137Z,1.20
2023-04-01T07:07:31.995Z,4.07
2023-04-01T07:10:10.617Z,1.53
2023-04-01T07:13:03.058Z,3.13
2023-04-01T07:15:59.073Z,1.70
2023-04-01T07:18:42.582Z,1.37
2023-04-01T07:21:58.881Z,1.87
2023-04-01T07:24:40.467Z,2.47
2023-04-01T07:27:14.013Z,1.30
2023-04-01T07:29:42.387Z,2.80
2023-04-01T07:32:36.140Z,1.83
2023-04-01T07:35:08.197Z,1.93
2023-04-01T07:38:00.466Z,1.80
2023-04-01T07:40:38.714Z,2.70
2023-04-01T07:43:25.135Z,0.83
2023-04-01T07:46:13.217Z,0.93
2023-04-01T07:48:42.249Z,0.97
2023-04-01T07:51:21.394Z,1.73
2023-04-01T07:54:14.065Z,3.03
2023-04-01T07:56:49.196Z,0.93
2023-04-01T07:59:40.831Z,1.03
2023-04-01T08:02:50.344Z,1.60
2023-04-01T08:05:27.169Z,2.03
2023-04-01T08:08:30.763Z,2.17
2023-04-01T08:11:34.305Z,1.50
2023-04-01T08:14:57.013Z,1.63
2023-04-01T08:17:59.766Z,2.33
2023-04-01T08:20:40.372Z,2.43
2023-04-01T08:23:14.837Z,4.13
2023-04-01T08:26:12.223Z,2.27
2023-04-01T08:28:50.137Z,0.50
2023-04-01T08:31:27.728Z,1.43
2023-04-01T08:33:55.624Z,0.43
2023-04-01T08:36:32.320Z,1.03
2023-04-01T08:39:31.186Z,1.87
2023-04-01T08:42:24.887Z,1.67
2023-04-01T08:45:23.992Z,1.40
2023-04-01T08:48:26.301Z,0.90
2023-04-01T08:51:09.165Z,0.73
2023-04-01T08:54:02.522Z,0.60
2023-04-01T08:57:15.276Z,0.40
2023-04-01T09:00:25.354Z,1.33
2023-04-01T09:03:15.972Z,1.03
2023-04-01T09:06:03.507Z,1.10
2023-04-01T09:09:09.778Z,0.70
2023-04-01T09:12:11.309Z,1.47
2023-04-01T09:14:47.503Z,0.90
2023-04-01T09:17:35.816Z,1.27
2023-04-01T09:20:38.111Z,0.87
2023-04-01T09:23:49.620Z,1.87
2023-04-01T09:26:19.239Z,1.07
2023-04-01T09:29:12.198Z,0.90
2023-04-01T09:31:57.230Z,0.70
2023-04-01T09:35:19.269Z,0.60
2023-04-01T09:37:53.437Z,1.27
2023-04-01T09:40:42.701Z,1.10
2023-04-01T09:43:43.296Z,2.47
2023-04-01T09:46:18.753Z,1.77
2023-04-01T09:49:19.900Z,1.40
2023-04-01T09:52:08.370Z,2.07
2023-04-01T09:54:47.284Z,0.90
2023-04-01T09:57:35.880Z,0.50
2023-04-01T10:00:35.791Z,2.23
2023-04-01T10:04:00.452Z,1.37
2023-04-01T10:07:05.574Z,0.93
2023-04-01T10:09:58.303Z,1.27
2023-04-01T10:12:38.020Z,1.37
2023-04-01T10:15:36.455Z,0.80
2023-04-01T10:18:20.435Z,1.30
2023-04-01T10:20:56.494Z,0.87
2023-04-01T10:24:12.502Z,1.80
2023-04-01T10:27:00.947Z,0.83
2023-04-01T10:30:15.629Z,0.83
2023-04-01T10:33:08.152Z,0.60
2023-04-01T10:36:16.764Z,0.97
2023-04-01T10:38:59.759Z,0.83
2023-04-01T10:41:32.647Z,0.40
2023-04-01T10:44:46.291Z,1.37
2023-04-01T10:47:22.988Z,1.37
2023-04-01T10:50:09.144Z,0.57
2023-04-01T10:52:51.665Z,1.13
2023-04-01T10:56:04.400Z,1.27
2023-04-01T10:59:28.426Z,2.20
2023-04-01T11:02:32.219Z,1.43
2023-04-01T11:05:56.351Z,1.23
2023-04-01T11:08:32.231Z,2.67
2023-04-01T11:11:18.382Z,1.43
2023-04-01T11:13:48.422Z,0.87
2023-04-01T11:16:40.101Z,1.60
2023-04-01T11:19:42.382Z,0.80
2023-04-01T11:22:17.222Z,1.10
2023-04-01T11:25:26.389Z,2.00
2023-04-01T11:28:38.594Z,0.73
2023-04-01T11:31:27.032Z,1.70
2023-04-01T11:34:25.049Z,1.23
2023-04-01T11:37:00.881Z,2.17
2023-04-01T11:39:35.749Z,1.53
2023-04-01T11:42:56.164Z,1.47
2023-04-01T11:46:32.554Z,2.33
2023-04-01T11:49:05.317Z,1.50
2023-04-01T11:52:13.151Z,2.73
2023-04-01T11:54:56.289Z,3.73
2023-04-01T11:57:37.949Z,3.43
2023-04-01T12:00:19.702Z,5.57
2023-04-01T12:03:11.329Z,3.80
2023-04-01T12:05:41.102Z,4.27
2023-04-01T12:08:13.466Z,2.33
2023-04-01T12:11:02.699Z,2.23
2023-04-01T12:13:35.305Z,4.37
2023-04-01T12:16:12.811Z,2.10
2023-04-01T12:18:58.277Z,1.73
2023-04-01T12:22:00.287Z,1.60
2023-04-01T12:24:41.013Z,1.83
2023-04-01T12:27:36.796Z,2.23
2023-04-01T12:30:31.544Z,3.43
2023-04-01T12:33:29.441Z,1.20
2023-04-01T12:36:23.632Z,1.57
2023-04-01T12:38:59.141Z,3.30
2023-04-01T12:41:38.019Z,1.60
2023-04-01T12:44:36.550Z,2.23
2023-04-01T12:47:19.218Z,1.67
2023-04-01T12:49:51.982Z,2.03
2023-04-01T12:52:40.093Z,1.73
2023-04-01T12:55:26.637Z,2.47
2023-04-01T12:58:09.869Z,2.37
2023-04-01T13:00:51.577Z,1.17
2023-04-01T13:03:46.326Z,0.70
2023-04-01T13:06:20.887Z,2.60
2023-04-01T13:09:20.851Z,1.70
2023-04-01T13:12:18.072Z,2.80
2023-04-01T13:14:58.438Z,2.30
2023-04-01T13:17:45.932Z,1.23
2023-04-01T13:20:21.293Z,1.20
2023-04-01T13:23:46.082Z,1.80
2023-04-01T13:26:38.289Z,2.00
2023-04-01T13:29:32.399Z,1.67
2023-04-01T13:32:43.251Z,1.70
2023-04-01T13:35:34.879Z,1.30
2023-04-01T13:38:43.238Z,2.67
2023-04-01T13:41:28.503Z,2.37
2023-04-01T13:44:00.959Z,1.47
2023-04-01T13:46:35.794Z,2.27
2023-04-01T13:49:17.930Z,2.90
2023-04-01T13:52:03.934Z,2.17
2023-04-01T13:54:58.437Z,3.10
2023-04-01T13:57:44.591Z,1.63
2023-04-01T14:00:33.107Z,2.07
2023-04-01T14:03:33.911Z,2.20
2023-04-01T14:06:27.589Z,2.13
2023-04-01T14:08:57.063Z,2.10
2023-04-01T14:11:40.413Z,2.90
2023-04-01T14:14:28.437Z,2.10
2023-04-01T14:17:01.085Z,4.37
2023-04-01T14:19:45.821Z,2.97
2023-04-01T14:22:32.778Z,2.70
2023-04-01T14:25:27.325Z,2.80
2023-04-01T14:28:13.167Z,2.00
2023-04-01T14:30:48.165Z,1.97
2023-04-01T14:33:36.555Z,1.20
2023-04-01T14:36:16.969Z,1.80
2023-04-01T14:39:17.553Z,1.67
2023-04-01T14:41:50.315Z,1.57
2023-04-01T14:44:44.430Z,1.37
2023-04-01T14:47:35.866Z,2.20
2023-04-01T14:50:18.775Z,3.60
2023-04-01T14:53:16.488Z,2.30
2023-04-01T14:55:49.192Z,1.10
2023-04-01T14:58:18.961Z,1.23
2023-04-01T15:01:07.537Z,1.40
2023-04-01T15:03:50.403Z,1.53
2023-04-01T15:06:38.280Z,3.53
2023-04-01T15:09:13.684Z,1.17
2023-04-01T15:12:00.354Z,1.00
2023-04-01T15:14:50.901Z,2.03
2023-04-01T15:17:36.370Z,1.73
2023-04-01T15:20:30.638Z,3.13
2023-04-01T15:23:08.116Z,1.73
2023-04-01T15:25:43.836Z,3.43
2023-04-01T15:28:31.859Z,3.13
2023-04-01T15:31:19.968Z,2.80
2023-04-01T15:33:52.484Z,3.00
2023-04-01T15:36:50.301Z,2.73
2023-04-01T15:39:31.243Z,1.70
2023-04-01T15:42:07.762Z,3.83
2023-04-01T15:44:53.403Z,2.50
2023-04-01T15:47:26.188Z,3.77
2023-04-01T15:50:39.032Z,2.30
2023-04-01T15:53:21.210Z,2.00
2023-04-01T15:56:16.184Z,1.17
2023-04-01T15:59:09.060Z,2.27
2023-04-01T16:01:47.348Z,3.30
2023-04-01T16:04:47.621Z,2.43
2023-04-01T16:07:39.183Z,1.20
2023-04-01T16:10:14.938Z,1.40
2023-04-01T16:13:07.390Z,1.90
2023-04-01T16:15:53.317Z,0.93
2023-04-01T16:18:29.084Z,2.20
2023-04-01T16:21:01.666Z,1.50
2023-04-01T16:23:49.056Z,2.77
2023-04-01T16:26:29.645Z,1.37
2023-04-01T16:29:08.986Z,1.63
2023-04-01T16:31:39.192Z,3.30
2023-04-01T16:34:20.737Z,2.73
2023-04-01T16:37:05.381Z,5.23
2023-04-01T16:39:54.236Z,3.43
2023-04-01T16:42:43.970Z,2.03
2023-04-01T16:45:25.576Z,2.87
2023-04-01T16:47:57.712Z,3.03
2023-04-01T16:50:28.619Z,2.17
2023-04-01T16:53:00.812Z,1.57
2023-04-01T16:55:46.679Z,2.63
2023-04-01T16:58:22.683Z,3.43
2023-04-01T17:00:52.874Z,1.53
2023-04-01T17:03:32.970Z,2.13
2023-04-01T17:05:59.600Z,4.07
2023-04-01T17:08:49.760Z,1.43
2023-04-01T17:11:23.820Z,2.40
2023-04-01T17:13:55.840Z,0.70
2023-04-01T17:16:31.627Z,3.40
2023-04-01T17:19:23.811Z,2.33
2023-04-01T17:22:03.269Z,2.40
2023-04-01T17:24:46.717Z,1.67
2023-04-01T17:27:27.081Z,3.53
2023-04-01T17:30:16.202Z,3.80
2023-04-01T17:33:21.961Z,3.93
2023-04-01T17:35:59.317Z,3.33
2023-04-01T17:38:51.036Z,2.20
2023-04-01T17:41:54.515Z,4.20
2023-04-01T17:44:42.558Z,3.23
2023-04-01T17:47:23.681Z,4.77
2023-04-01T17:50:15.126Z,7.13
2023-04-01T17:52:57.050Z,4.40
2023-04-01T17:55:29.767Z,1.90
2023-04-01T17:58:23.981Z,3.10
2023-04-01T18:01:09.744Z,2.23
2023-04-01T18:04:02.536Z,1.70
2023-04-01T18:06:41.290Z,2.43
2023-04-01T18:09:22.989Z,1.87
2023-04-01T18:12:08.382Z,2.73
2023-04-01T18:14:56.341Z,1.93
2023-04-01T18:17:41.424Z,2.77
2023-04-01T18:20:37.511Z,2.43
2023-04-01T18:23:19.975Z,2.07
2023-04-01T18:25:49.595Z,3.27
2023-04-01T18:28:23.348Z,1.80
2023-04-01T18:31:16.043Z,3.37
2023-04-01T18:33:50.322Z,1.77
2023-04-01T18:36:19.949Z,2.00
2023-04-01T18:39:03.714Z,1.60
2023-04-01T18:41:36.341Z,2.70
2023-04-01T18:44:15.313Z,1.53
2023-04-01T18:46:47.001Z,2.33
2023-04-01T18:49:35.678Z,1.60
2023-04-01T18:52:36.576Z,2.77
2023-04-01T18:55:03.231Z,1.87
2023-04-01T18:57:51.925Z,3.30
2023-04-01T19:00:27.065Z,2.87
2023-04-01T19:03:01.630Z,2.93
2023-04-01T19:05:39.304Z,1.73
2023-04-01T19:08:26.913Z,2.77
2023-04-01T19:11:28.209Z,3.73
2023-04-01T19:14:16.367Z,2.97
2023-04-01T19:17:07.354Z,2.57
2023-04-01T19:19:46.037Z,3.57
2023-04-01T19:22:32.059Z,2.97
2023-04-01T19:25:24.475Z,2.77
2023-04-01T19:27:53.932Z,3.43
2023-04-01T19:30:23.664Z,2.47
2023-04-01T19:33:20.924Z,2.30
2023-04-01T19:36:18.558Z,2.20
2023-04-01T19:38:58.759Z,4.03
2023-04-01T19:41:28.301Z,3.60
2023-04-01T19:44:06.802Z,1.57
2023-04-01T19:46:38.331Z,1.63
2023-04-01T19:49:16.883Z,2.27
2023-04-01T19:51:52.584Z,2.37
2023-04-01T19:54:37.710Z,2.07
2023-04-01T19:57:24.253Z,3.43
2023-04-01T20:00:08.732Z,3.30
2023-04-01T20:02:59.465Z,3.10
2023-04-01T20:05:26.690Z,2.33
2023-04-01T20:08:00.946Z,2.13
2023-04-01T20:10:43.552Z,2.40
2023-04-01T20:13:33.511Z,1.83
2023-04-01T20:16:07.001Z,3.83
2023-04-01T20:18:53.552Z,2.23
2023-04-01T20:21:38.632Z,3.13
2023-04-01T20:24:08.245Z,3.60
2023-04-01T20:26:40.442Z,2.07
2023-04-01T20:29:42.428Z,2.50
2023-04-01T20:32:27.552Z,2.63
2023-04-01T20:35:27.284Z,2.67
2023-04-01T20:38:11.899Z,4.00
2023-04-01T20:40:42.426Z,2.07
2023-04-01T20:43:18.724Z,1.50
2023-04-01T20:46:12.663Z,2.77
2023-04-01T20:49:01.238Z,2.63
2023-04-01T20:51:32.349Z,2.67
2023-04-01T20:54:20.787Z,3.77
2023-04-01T20:57:05.869Z,2.67
2023-04-01T20:59:59.329Z,4.60
2023-04-01T21:03:07.453Z,2.30
2023-04-01T21:06:16.656Z,2.67
2023-04-01T21:09:18.689Z,1.60
2023-04-01T21:11:59.726Z,3.60
2023-04-01T21:14:33.195Z,2.63
2023-04-01T21:17:08.745Z,4.07
2023-04-01T21:19:57.465Z,2.37
2023-04-01T21:22:41.914Z,2.27
2023-04-01T21:25:20.463Z,6.63
2023-04-01T21:28:11.885Z,3.60
2023-04-01T21:30:58.910Z,3.77
2023-04-01T21:33:52.106Z,2.53
2023-04-01T21:36:39.865Z,4.70
2023-04-01T21:39:28.263Z,2.47
2023-04-01T21:42:16.290Z,2.70
2023-04-01T21:45:03.411Z,4.63
2023-04-01T21:47:35.852Z,4.17
2023-04-01T21:50:40.290Z,4.30
2023-04-01T21:53:31.703Z,5.63
2023-04-01T21:56:01.122Z,3.23
2023-04-01T21:58:56.033Z,3.50
2023-04-01T22:01:45.189Z,4.30
2023-04-01T22:04:39.796Z,4.03
2023-04-01T22:07:18.213Z,4.47
2023-04-01T22:09:47.563Z,5.50
2023-04-01T22:12:34.454Z,5.03
2023-04-01T22:15:50.577Z,3.93
2023-04-01T22:18:34.917Z,3.97
2023-04-01T22:21:10.371Z,6.77
2023-04-01T22:23:53.643Z,3.53
2023-04-01T22:26:48.467Z,5.50
2023-04-01T22:29:23.876Z,3.30
2023-04-01T22:32:05.873Z,4.03
2023-04-01T22:35:06.024Z,4.67
2023-04-01T22:37:44.253Z,5.17
2023-04-01T22:40:26.612Z,4.03
2023-04-01T22:43:17.035Z,4.43
2023-04-01T22:46:08.370Z,3.40
2023-04-01T22:48:42.441Z,2.60
2023-04-01T22:51:30.297Z,3.27
2023-04-01T22:54:35.399Z,2.87
2023-04-01T22:57:11.314Z,2.23
2023-04-01T22:59:47.521Z,3.87
2023-04-01T23:02:27.118Z,3.73
2023-04-01T23:04:58.404Z,2.67
2023-04-01T23:07:54.879Z,3.70
2023-04-01T23:10:45.705Z,4.60
2023-04-01T23:13:23.350Z,3.40
2023-04-01T23:15:52.997Z,3.43
2023-04-01T23:18:31.114Z,4.67
2023-04-01T23:21:00.936Z,3.83
2023-04-01T23:24:23.320Z,2.70
2023-04-01T23:26:56.496Z,2.37
2023-04-01T23:29:23.972Z,2.10
2023-04-01T23:32:01.660Z,3.37
2023-04-01T23:34:32.343Z,3.53
2023-04-01T23:37:05.866Z,3.20
2023-04-01T23:39:41.940Z,3.77
2023-04-01T23:42:16.166Z,3.10
2023-04-01T23:44:44.785Z,3.00
2023-04-01T23:47:18.241Z,2.97
2023-04-01T23:49:52.520Z,2.50
2023-04-01T23:52:24.486Z,4.90
2023-04-01T23:55:00.724Z,3.10
2023-04-01T23:57:35.870Z,3.57
